KABY

Southwest Georgia Regional Airport

Albany, Georgia, USA
METAR KABY 201301Z 27006KT 1 3/4SM BR OVC002 22/21 A3009 RMK AO2 T02220211
Observed Flight Rules
Oct-20 @ 13:01 UTC (11 minutes ago) Instrument Flight Rules
Wind Visibility Clouds Conditions
270° at 6 knots 1 3/4 miles
  • Overcast at 200' AGL
  • Mist
Temperatures Readings
Current 22°C / 72°F
Dewpoint 21°C / 70°F
Humidity 94%
Altimeter 30.09" Hg
Pressure 1019 hPa
Elevation 58
METAR KABY 201301Z 27006KT 1 3/4SM BR OVC002 22/21 A3009 RMK AO2 T02220211
Observed Flight Rules
Oct-20 @ 13:01 UTC
(11 minutes ago)
LIFR
Wind Visibility
270° at 6 knots 1 3/4 miles
Clouds
  • Overcast at 200' AGL
Conditions
  • Mist
Temperature Dewpoint
22°C / 72°F 21°C / 70°F
Humidity Altimeter Pressure
94% 30.09" Hg 1019 hPa